This is the latest recevied weather packets stored in our database for station/object KC1OHT-13. If no packets are shown the sender has not sent any weather packets the latest 1 day(s).
| Time | Temp. | Humidity | Pressure | Rain* | Wind** | Luminosity | Snow |
|---|---|---|---|---|---|---|---|
| 1778024958 | 17.78° C | 63% | 1006.7 hPa | 0 mm | 0.89 m/s, 137° | 2 W/m² | - |
| 1778024656 | 18.33° C | 62% | 1006.8 hPa | 0 mm | 0.89 m/s, 198° | 3 W/m² | - |
| 1778024352 | 17.78° C | 62% | 1006.8 hPa | 0 mm | 1.34 m/s, 242° | 5 W/m² | - |
| 1778024050 | 18.33° C | 62% | 1006.8 hPa | 0 mm | 1.79 m/s, 223° | 8 W/m² | - |
| 1778023747 | 18.33° C | 61% | 1006.6 hPa | 0 mm | 1.34 m/s, 194° | 11 W/m² | - |
| 1778023445 | 18.89° C | 61% | 1006.4 hPa | 0 mm | 1.79 m/s, 180° | 16 W/m² | - |
| 1778023142 | 18.89° C | 60% | 1006.2 hPa | 0 mm | 0.89 m/s, 336° | 19 W/m² | - |
| 1778022839 | 18.33° C | 61% | 1006.4 hPa | 0 mm | 1.34 m/s, 147° | 22 W/m² | - |
| 1778022537 | 18.33° C | 61% | 1006.5 hPa | 0 mm | 0.89 m/s, 155° | 26 W/m² | - |
| 1778022234 | 18.89° C | 60% | 1006.3 hPa | 0 mm | 0.89 m/s, 87° | 32 W/m² | - |
| 1778021931 | 19.44° C | 57% | 1006.3 hPa | 0 mm | 0.89 m/s, 191° | 38 W/m² | - |
| 1778021628 | 19.44° C | 59% | 1005.9 hPa | 0 mm | 0.89 m/s, 188° | 44 W/m² | - |
| 1778021323 | 20.56° C | 57% | 1005.9 hPa | 0 mm | 0.89 m/s, 31° | 50 W/m² | - |
| 1778021021 | 21.11° C | 53% | 1005.6 hPa | 0 mm | 0.89 m/s, 21° | 58 W/m² | - |
| 1778020718 | 21.11° C | 53% | 1005.4 hPa | 0 mm | 1.34 m/s, 12° | 65 W/m² | - |
| 1778020415 | 21.11° C | 53% | 1005.4 hPa | 0 mm | 1.79 m/s, 203° | 70 W/m² | - |
| 1778020111 | 21.67° C | 52% | 1005.1 hPa | 0 mm | 2.24 m/s, 187° | 74 W/m² | - |
| 1778019807 | 21.67° C | 51% | 1005.5 hPa | 0 mm | 1.79 m/s, 273° | 77 W/m² | - |
| 1778019504 | 21.67° C | 50% | 1005.4 hPa | 0 mm | 1.34 m/s, 17° | 78 W/m² | - |
| 1778019201 | 21.67° C | 51% | 1005.7 hPa | 0 mm | 1.79 m/s, 299° | 78 W/m² | - |
| 1778018898 | 21.67° C | 51% | 1005.5 hPa | 0 mm | 0.89 m/s, 29° | 77 W/m² | - |
| 1778018595 | 20.56° C | 56% | 1005.3 hPa | 0 mm | 0.89 m/s, 303° | 78 W/m² | - |
| 1778018293 | 20.56° C | 56% | 1005.3 hPa | 0 mm | 1.34 m/s, 146° | 79 W/m² | - |
| 1778017991 | 20° C | 56% | 1005.3 hPa | 0 mm | 0.89 m/s, 16° | 77 W/m² | - |
| 1778017688 | 20° C | 56% | 1005.3 hPa | 0 mm | 1.79 m/s, 105° | 75 W/m² | - |
* Rain latest hour (hover to see other rain measurements)
** Current wind speed in m/s (hover to see current wind gust speed)